sensor_id;sensor_type;location;lat;lon;timestamp;temperature;humidity
9875;DHT22;4976;46.786;7.632;2022-07-10T04:01:59;13.70;1.00
9875;DHT22;4976;46.786;7.632;2022-07-10T04:04:26;13.80;1.00
9875;DHT22;4976;46.786;7.632;2022-07-10T04:06:54;13.70;1.00
9875;DHT22;4976;46.786;7.632;2022-07-10T04:09:21;13.70;1.00
9875;DHT22;4976;46.786;7.632;2022-07-10T04:11:48;13.70;1.00
9875;DHT22;4976;46.786;7.632;2022-07-10T04:14:14;13.70;1.00
9875;DHT22;4976;46.786;7.632;2022-07-10T04:16:41;13.70;1.00
9875;DHT22;4976;46.786;7.632;2022-07-10T04:19:10;13.80;1.00
9875;DHT22;4976;46.786;7.632;2022-07-10T04:21:37;13.80;1.00
9875;DHT22;4976;46.786;7.632;2022-07-10T04:24:04;13.90;1.00
9875;DHT22;4976;46.786;7.632;2022-07-10T04:26:31;14.00;1.00
9875;DHT22;4976;46.786;7.632;2022-07-10T04:28:58;13.90;1.00
9875;DHT22;4976;46.786;7.632;2022-07-10T04:31:24;13.90;1.00
9875;DHT22;4976;46.786;7.632;2022-07-10T04:33:51;14.00;1.00
9875;DHT22;4976;46.786;7.632;2022-07-10T04:36:20;14.00;1.00
9875;DHT22;4976;46.786;7.632;2022-07-10T04:38:47;14.00;1.00
9875;DHT22;4976;46.786;7.632;2022-07-10T04:41:13;14.00;1.00
9875;DHT22;4976;46.786;7.632;2022-07-10T04:43:40;14.10;1.00
9875;DHT22;4976;46.786;7.632;2022-07-10T04:46:07;14.10;1.00
9875;DHT22;4976;46.786;7.632;2022-07-10T04:48:34;14.20;1.00
9875;DHT22;4976;46.786;7.632;2022-07-10T04:51:01;14.30;1.00
9875;DHT22;4976;46.786;7.632;2022-07-10T04:53:29;14.40;1.00
9875;DHT22;4976;46.786;7.632;2022-07-10T04:55:56;14.40;1.00
9875;DHT22;4976;46.786;7.632;2022-07-10T04:58:24;14.50;1.00
9875;DHT22;4976;46.786;7.632;2022-07-10T05:00:51;14.50;1.00
9875;DHT22;4976;46.786;7.632;2022-07-10T05:03:17;14.60;1.00
9875;DHT22;4976;46.786;7.632;2022-07-10T05:05:44;14.60;1.00
9875;DHT22;4976;46.786;7.632;2022-07-10T05:08:11;14.60;1.00
9875;DHT22;4976;46.786;7.632;2022-07-10T05:10:40;14.60;1.00
9875;DHT22;4976;46.786;7.632;2022-07-10T05:13:07;14.40;1.00
9875;DHT22;4976;46.786;7.632;2022-07-10T05:15:33;14.40;1.00
9875;DHT22;4976;46.786;7.632;2022-07-10T05:18:00;14.60;1.00
9875;DHT22;4976;46.786;7.632;2022-07-10T05:20:27;14.60;1.00
9875;DHT22;4976;46.786;7.632;2022-07-10T05:22:54;14.80;1.00
9875;DHT22;4976;46.786;7.632;2022-07-10T05:25:22;14.90;1.00
9875;DHT22;4976;46.786;7.632;2022-07-10T05:27:53;15.10;1.00
9875;DHT22;4976;46.786;7.632;2022-07-10T05:30:20;15.10;1.00
9875;DHT22;4976;46.786;7.632;2022-07-10T05:32:47;15.20;1.00
9875;DHT22;4976;46.786;7.632;2022-07-10T05:35:14;15.30;1.00
9875;DHT22;4976;46.786;7.632;2022-07-10T05:37:41;15.40;1.00
9875;DHT22;4976;46.786;7.632;2022-07-10T05:40:09;15.50;1.00
9875;DHT22;4976;46.786;7.632;2022-07-10T05:42:36;15.60;99.90
9875;DHT22;4976;46.786;7.632;2022-07-10T05:45:06;15.70;99.90
9875;DHT22;4976;46.786;7.632;2022-07-10T05:47:33;15.90;1.00
9875;DHT22;4976;46.786;7.632;2022-07-10T05:50:00;16.00;1.00
9875;DHT22;4976;46.786;7.632;2022-07-10T05:52:27;16.20;99.90
9875;DHT22;4976;46.786;7.632;2022-07-10T05:54:55;16.20;1.00
9875;DHT22;4976;46.786;7.632;2022-07-10T05:57:22;16.30;1.00
9875;DHT22;4976;46.786;7.632;2022-07-10T05:59:49;16.40;1.00
9875;DHT22;4976;46.786;7.632;2022-07-10T06:02:17;16.60;1.00
9875;DHT22;4976;46.786;7.632;2022-07-10T06:04:45;16.80;1.00
9875;DHT22;4976;46.786;7.632;2022-07-10T06:07:12;16.90;1.00
9875;DHT22;4976;46.786;7.632;2022-07-10T06:09:39;16.90;1.00
9875;DHT22;4976;46.786;7.632;2022-07-10T06:12:06;17.00;99.90
9875;DHT22;4976;46.786;7.632;2022-07-10T06:14:33;17.10;99.90
9875;DHT22;4976;46.786;7.632;2022-07-10T06:17:00;17.10;10.30
9875;DHT22;4976;46.786;7.632;2022-07-10T06:19:28;17.20;1.00
9875;DHT22;4976;46.786;7.632;2022-07-10T06:21:55;17.40;1.00
9875;DHT22;4976;46.786;7.632;2022-07-10T06:24:36;17.60;1.00
9875;DHT22;4976;46.786;7.632;2022-07-10T06:27:04;17.60;99.90
9875;DHT22;4976;46.786;7.632;2022-07-10T06:29:31;17.70;99.90
9875;DHT22;4976;46.786;7.632;2022-07-10T06:31:58;17.80;1.00
9875;DHT22;4976;46.786;7.632;2022-07-10T06:34:25;17.70;99.90
9875;DHT22;4976;46.786;7.632;2022-07-10T06:36:53;17.70;1.00
9875;DHT22;4976;46.786;7.632;2022-07-10T06:39:21;18.00;1.00
9875;DHT22;4976;46.786;7.632;2022-07-10T06:41:48;18.20;99.90
9875;DHT22;4976;46.786;7.632;2022-07-10T06:44:15;18.40;1.00
9875;DHT22;4976;46.786;7.632;2022-07-10T06:46:42;18.40;99.90
9875;DHT22;4976;46.786;7.632;2022-07-10T06:49:29;18.50;1.00
9875;DHT22;4976;46.786;7.632;2022-07-10T06:51:56;18.60;1.00
9875;DHT22;4976;46.786;7.632;2022-07-10T06:54:23;18.70;99.90
9875;DHT22;4976;46.786;7.632;2022-07-10T06:56:50;18.80;99.90
9875;DHT22;4976;46.786;7.632;2022-07-10T06:59:17;18.80;99.90
9875;DHT22;4976;46.786;7.632;2022-07-10T07:01:44;18.90;1.00
9875;DHT22;4976;46.786;7.632;2022-07-10T07:04:11;19.00;1.00
9875;DHT22;4976;46.786;7.632;2022-07-10T07:06:42;19.10;99.90
9875;DHT22;4976;46.786;7.632;2022-07-10T07:09:10;19.30;1.00
9875;DHT22;4976;46.786;7.632;2022-07-10T07:11:37;19.30;1.00
9875;DHT22;4976;46.786;7.632;2022-07-10T07:14:04;19.40;99.90
9875;DHT22;4976;46.786;7.632;2022-07-10T07:16:31;19.50;1.00
9875;DHT22;4976;46.786;7.632;2022-07-10T07:19:05;19.60;99.90
9875;DHT22;4976;46.786;7.632;2022-07-10T07:21:32;19.60;99.90
9875;DHT22;4976;46.786;7.632;2022-07-10T07:24:18;19.70;99.90
9875;DHT22;4976;46.786;7.632;2022-07-10T07:26:45;19.80;99.90
9875;DHT22;4976;46.786;7.632;2022-07-10T07:29:26;19.90;80.70
9875;DHT22;4976;46.786;7.632;2022-07-10T07:31:53;20.10;99.90
9875;DHT22;4976;46.786;7.632;2022-07-10T07:34:21;20.40;67.80
9875;DHT22;4976;46.786;7.632;2022-07-10T07:36:48;20.40;95.00
9875;DHT22;4976;46.786;7.632;2022-07-10T07:39:14;20.60;95.60
9875;DHT22;4976;46.786;7.632;2022-07-10T07:41:43;20.80;1.00
9875;DHT22;4976;46.786;7.632;2022-07-10T07:44:10;20.90;1.00
9875;DHT22;4976;46.786;7.632;2022-07-10T07:46:37;20.90;1.00
9875;DHT22;4976;46.786;7.632;2022-07-10T07:49:04;21.00;1.00
9875;DHT22;4976;46.786;7.632;2022-07-10T07:51:32;21.30;1.00
9875;DHT22;4976;46.786;7.632;2022-07-10T07:53:59;21.40;1.00
9875;DHT22;4976;46.786;7.632;2022-07-10T07:56:26;21.40;1.00
9875;DHT22;4976;46.786;7.632;2022-07-10T07:58:54;21.40;1.00
9875;DHT22;4976;46.786;7.632;2022-07-10T08:01:22;21.50;1.00
9875;DHT22;4976;46.786;7.632;2022-07-10T08:03:48;21.50;1.00
9875;DHT22;4976;46.786;7.632;2022-07-10T08:06:15;21.80;1.00
9875;DHT22;4976;46.786;7.632;2022-07-10T08:08:42;22.20;1.00
9875;DHT22;4976;46.786;7.632;2022-07-10T08:11:10;22.40;1.00
9875;DHT22;4976;46.786;7.632;2022-07-10T08:13:37;22.70;1.00
9875;DHT22;4976;46.786;7.632;2022-07-10T08:16:06;22.80;1.00
9875;DHT22;4976;46.786;7.632;2022-07-10T08:18:33;22.60;1.00
9875;DHT22;4976;46.786;7.632;2022-07-10T08:21:00;22.50;1.00
9875;DHT22;4976;46.786;7.632;2022-07-10T08:23:27;22.70;1.00
9875;DHT22;4976;46.786;7.632;2022-07-10T08:25:54;22.80;1.00
9875;DHT22;4976;46.786;7.632;2022-07-10T08:28:22;22.70;1.00
9875;DHT22;4976;46.786;7.632;2022-07-10T08:30:49;22.80;1.00
9875;DHT22;4976;46.786;7.632;2022-07-10T08:33:17;22.80;1.00
9875;DHT22;4976;46.786;7.632;2022-07-10T08:35:44;22.90;1.00
9875;DHT22;4976;46.786;7.632;2022-07-10T08:38:11;23.00;1.00
9875;DHT22;4976;46.786;7.632;2022-07-10T08:40:39;22.90;1.00
9875;DHT22;4976;46.786;7.632;2022-07-10T08:43:06;23.10;1.00
9875;DHT22;4976;46.786;7.632;2022-07-10T08:45:34;22.90;1.00
9875;DHT22;4976;46.786;7.632;2022-07-10T08:48:02;22.90;1.00
9875;DHT22;4976;46.786;7.632;2022-07-10T08:50:35;23.10;1.00
9875;DHT22;4976;46.786;7.632;2022-07-10T08:53:08;23.60;1.00
9875;DHT22;4976;46.786;7.632;2022-07-10T08:55:36;23.40;1.00
9875;DHT22;4976;46.786;7.632;2022-07-10T08:58:04;23.60;1.00
9875;DHT22;4976;46.786;7.632;2022-07-10T09:00:31;23.70;1.00
9875;DHT22;4976;46.786;7.632;2022-07-10T09:02:58;23.80;1.00
9875;DHT22;4976;46.786;7.632;2022-07-10T09:05:25;23.90;1.00
9875;DHT22;4976;46.786;7.632;2022-07-10T09:07:54;24.10;1.00
9875;DHT22;4976;46.786;7.632;2022-07-10T09:10:24;24.30;1.00
9875;DHT22;4976;46.786;7.632;2022-07-10T09:12:53;24.40;1.00
9875;DHT22;4976;46.786;7.632;2022-07-10T09:15:22;24.50;1.00
9875;DHT22;4976;46.786;7.632;2022-07-10T09:17:53;24.50;1.00
9875;DHT22;4976;46.786;7.632;2022-07-10T09:20:30;24.50;1.00
9875;DHT22;4976;46.786;7.632;2022-07-10T09:23:09;24.70;1.00
9875;DHT22;4976;46.786;7.632;2022-07-10T09:25:40;24.70;1.00
9875;DHT22;4976;46.786;7.632;2022-07-10T09:28:07;24.50;1.00
9875;DHT22;4976;46.786;7.632;2022-07-10T09:30:36;24.50;1.00
9875;DHT22;4976;46.786;7.632;2022-07-10T09:33:20;24.60;1.00
9875;DHT22;4976;46.786;7.632;2022-07-10T09:36:05;24.80;1.00
9875;DHT22;4976;46.786;7.632;2022-07-10T09:38:53;25.10;1.00
9875;DHT22;4976;46.786;7.632;2022-07-10T09:41:25;24.90;1.00
9875;DHT22;4976;46.786;7.632;2022-07-10T09:43:54;25.00;1.00
9875;DHT22;4976;46.786;7.632;2022-07-10T09:46:23;24.90;1.00
9875;DHT22;4976;46.786;7.632;2022-07-10T09:49:05;24.70;1.00
9875;DHT22;4976;46.786;7.632;2022-07-10T09:51:34;25.00;1.00
9875;DHT22;4976;46.786;7.632;2022-07-10T09:54:03;25.20;1.00
9875;DHT22;4976;46.786;7.632;2022-07-10T09:56:35;25.60;1.00
9875;DHT22;4976;46.786;7.632;2022-07-10T09:59:08;25.70;1.00
9875;DHT22;4976;46.786;7.632;2022-07-10T10:01:36;25.80;99.90
9875;DHT22;4976;46.786;7.632;2022-07-10T10:04:04;25.50;99.90
9875;DHT22;4976;46.786;7.632;2022-07-10T10:06:33;25.40;99.90
9875;DHT22;4976;46.786;7.632;2022-07-10T10:09:07;25.60;99.90
9875;DHT22;4976;46.786;7.632;2022-07-10T10:11:36;25.80;99.90
9875;DHT22;4976;46.786;7.632;2022-07-10T10:14:07;25.70;99.90
9875;DHT22;4976;46.786;7.632;2022-07-10T10:16:35;25.40;99.90
9875;DHT22;4976;46.786;7.632;2022-07-10T10:19:02;25.50;99.90
9875;DHT22;4976;46.786;7.632;2022-07-10T10:21:47;25.90;99.90
9875;DHT22;4976;46.786;7.632;2022-07-10T10:24:16;25.90;99.90
9875;DHT22;4976;46.786;7.632;2022-07-10T10:26:43;25.50;99.90
9875;DHT22;4976;46.786;7.632;2022-07-10T10:29:11;25.10;99.90
9875;DHT22;4976;46.786;7.632;2022-07-10T10:31:39;25.40;99.90
9875;DHT22;4976;46.786;7.632;2022-07-10T10:34:06;25.70;99.90
9875;DHT22;4976;46.786;7.632;2022-07-10T10:36:48;25.90;99.90
9875;DHT22;4976;46.786;7.632;2022-07-10T10:39:18;25.50;99.90
9875;DHT22;4976;46.786;7.632;2022-07-10T10:41:48;25.50;99.90
9875;DHT22;4976;46.786;7.632;2022-07-10T10:44:28;25.60;99.90
9875;DHT22;4976;46.786;7.632;2022-07-10T10:47:03;25.80;99.90
9875;DHT22;4976;46.786;7.632;2022-07-10T10:50:05;25.50;99.90
9875;DHT22;4976;46.786;7.632;2022-07-10T10:52:32;25.50;99.90
9875;DHT22;4976;46.786;7.632;2022-07-10T10:55:02;25.40;99.90
9875;DHT22;4976;46.786;7.632;2022-07-10T10:57:40;25.60;99.90
9875;DHT22;4976;46.786;7.632;2022-07-10T11:00:30;25.50;99.90
9875;DHT22;4976;46.786;7.632;2022-07-10T11:03:17;25.50;99.90
9875;DHT22;4976;46.786;7.632;2022-07-10T11:05:45;25.60;99.90
9875;DHT22;4976;46.786;7.632;2022-07-10T11:08:13;25.70;99.90
9875;DHT22;4976;46.786;7.632;2022-07-10T11:10:43;25.70;99.90
9875;DHT22;4976;46.786;7.632;2022-07-10T11:13:11;25.40;99.90
9875;DHT22;4976;46.786;7.632;2022-07-10T11:15:40;25.60;99.90
9875;DHT22;4976;46.786;7.632;2022-07-10T11:18:09;25.70;99.90
9875;DHT22;4976;46.786;7.632;2022-07-10T11:20:39;25.40;99.90
9875;DHT22;4976;46.786;7.632;2022-07-10T11:23:26;25.20;99.90
9875;DHT22;4976;46.786;7.632;2022-07-10T11:26:02;25.60;99.90
9875;DHT22;4976;46.786;7.632;2022-07-10T11:28:46;25.70;99.90
9875;DHT22;4976;46.786;7.632;2022-07-10T11:31:15;26.00;99.90
9875;DHT22;4976;46.786;7.632;2022-07-10T11:33:43;26.00;99.90
9875;DHT22;4976;46.786;7.632;2022-07-10T11:36:14;25.60;99.90
9875;DHT22;4976;46.786;7.632;2022-07-10T11:38:42;25.70;99.90
9875;DHT22;4976;46.786;7.632;2022-07-10T11:41:14;25.60;99.90
9875;DHT22;4976;46.786;7.632;2022-07-10T11:43:52;25.70;99.90
9875;DHT22;4976;46.786;7.632;2022-07-10T11:46:21;25.50;99.90
9875;DHT22;4976;46.786;7.632;2022-07-10T11:48:53;25.20;99.90
9875;DHT22;4976;46.786;7.632;2022-07-10T11:51:23;25.20;99.90
9875;DHT22;4976;46.786;7.632;2022-07-10T11:53:55;25.10;99.90
9875;DHT22;4976;46.786;7.632;2022-07-10T11:56:25;25.10;99.90
9875;DHT22;4976;46.786;7.632;2022-07-10T11:58:56;25.20;99.90
9875;DHT22;4976;46.786;7.632;2022-07-10T12:01:23;25.40;99.90
9875;DHT22;4976;46.786;7.632;2022-07-10T12:03:55;25.50;99.90
9875;DHT22;4976;46.786;7.632;2022-07-10T12:06:23;25.60;99.90
9875;DHT22;4976;46.786;7.632;2022-07-10T12:08:50;25.90;99.90
9875;DHT22;4976;46.786;7.632;2022-07-10T12:11:18;25.80;99.90
9875;DHT22;4976;46.786;7.632;2022-07-10T12:13:48;25.70;99.90
9875;DHT22;4976;46.786;7.632;2022-07-10T12:16:16;25.70;99.90
9875;DHT22;4976;46.786;7.632;2022-07-10T12:18:43;26.00;99.90
9875;DHT22;4976;46.786;7.632;2022-07-10T12:21:13;26.00;99.90
9875;DHT22;4976;46.786;7.632;2022-07-10T12:23:43;26.00;99.90
9875;DHT22;4976;46.786;7.632;2022-07-10T12:26:12;26.10;99.90
9875;DHT22;4976;46.786;7.632;2022-07-10T12:28:54;25.70;99.90
9875;DHT22;4976;46.786;7.632;2022-07-10T12:31:26;25.60;99.90
9875;DHT22;4976;46.786;7.632;2022-07-10T12:33:55;25.70;99.90
9875;DHT22;4976;46.786;7.632;2022-07-10T12:36:24;25.70;99.90
9875;DHT22;4976;46.786;7.632;2022-07-10T12:38:57;26.00;99.90
9875;DHT22;4976;46.786;7.632;2022-07-10T12:41:24;26.00;99.90
9875;DHT22;4976;46.786;7.632;2022-07-10T12:43:53;26.10;99.90
9875;DHT22;4976;46.786;7.632;2022-07-10T12:46:21;26.20;99.90
9875;DHT22;4976;46.786;7.632;2022-07-10T12:49:02;26.10;99.90
9875;DHT22;4976;46.786;7.632;2022-07-10T12:51:32;26.20;99.90
9875;DHT22;4976;46.786;7.632;2022-07-10T12:53:59;26.40;99.90
9875;DHT22;4976;46.786;7.632;2022-07-10T12:56:30;26.60;99.90
9875;DHT22;4976;46.786;7.632;2022-07-10T12:59:00;26.70;99.90
9875;DHT22;4976;46.786;7.632;2022-07-10T13:01:27;26.50;99.90
9875;DHT22;4976;46.786;7.632;2022-07-10T13:03:59;26.30;99.90
9875;DHT22;4976;46.786;7.632;2022-07-10T13:06:27;26.00;99.90
9875;DHT22;4976;46.786;7.632;2022-07-10T13:08:54;26.10;99.90
9875;DHT22;4976;46.786;7.632;2022-07-10T13:11:21;25.90;99.90
9875;DHT22;4976;46.786;7.632;2022-07-10T13:13:48;25.80;99.90
9875;DHT22;4976;46.786;7.632;2022-07-10T13:16:17;25.80;99.90
9875;DHT22;4976;46.786;7.632;2022-07-10T13:18:44;25.80;99.90
9875;DHT22;4976;46.786;7.632;2022-07-10T13:21:11;25.70;99.90
9875;DHT22;4976;46.786;7.632;2022-07-10T13:23:38;25.60;99.90
9875;DHT22;4976;46.786;7.632;2022-07-10T13:26:08;25.80;99.90
9875;DHT22;4976;46.786;7.632;2022-07-10T13:28:35;25.80;99.90
9875;DHT22;4976;46.786;7.632;2022-07-10T13:31:02;26.20;99.90
9875;DHT22;4976;46.786;7.632;2022-07-10T13:33:30;26.20;99.90
9875;DHT22;4976;46.786;7.632;2022-07-10T13:36:00;26.20;99.90
9875;DHT22;4976;46.786;7.632;2022-07-10T13:38:27;26.30;99.90
9875;DHT22;4976;46.786;7.632;2022-07-10T13:40:55;26.50;99.90
9875;DHT22;4976;46.786;7.632;2022-07-10T13:43:22;26.70;99.90
9875;DHT22;4976;46.786;7.632;2022-07-10T13:45:56;26.50;99.90
9875;DHT22;4976;46.786;7.632;2022-07-10T13:48:23;26.40;99.90
9875;DHT22;4976;46.786;7.632;2022-07-10T13:50:52;26.40;99.90
9875;DHT22;4976;46.786;7.632;2022-07-10T13:53:19;26.60;99.90
9875;DHT22;4976;46.786;7.632;2022-07-10T13:55:47;26.40;99.90
9875;DHT22;4976;46.786;7.632;2022-07-10T13:58:15;26.40;99.90
9875;DHT22;4976;46.786;7.632;2022-07-10T14:00:42;26.40;99.90
9875;DHT22;4976;46.786;7.632;2022-07-10T14:03:09;26.50;99.90
9875;DHT22;4976;46.786;7.632;2022-07-10T14:05:36;26.50;99.90
9875;DHT22;4976;46.786;7.632;2022-07-10T14:08:04;26.30;99.90
9875;DHT22;4976;46.786;7.632;2022-07-10T14:10:31;26.30;99.90
9875;DHT22;4976;46.786;7.632;2022-07-10T14:12:59;26.20;99.90
9875;DHT22;4976;46.786;7.632;2022-07-10T14:15:26;26.10;99.90
9875;DHT22;4976;46.786;7.632;2022-07-10T14:17:53;26.40;99.90
9875;DHT22;4976;46.786;7.632;2022-07-10T14:20:20;26.70;99.90
9875;DHT22;4976;46.786;7.632;2022-07-10T14:22:47;26.50;99.90
9875;DHT22;4976;46.786;7.632;2022-07-10T14:25:17;26.40;99.90
9875;DHT22;4976;46.786;7.632;2022-07-10T14:27:45;26.50;99.90
9875;DHT22;4976;46.786;7.632;2022-07-10T14:30:12;26.60;99.90
9875;DHT22;4976;46.786;7.632;2022-07-10T14:32:39;26.50;99.90
9875;DHT22;4976;46.786;7.632;2022-07-10T14:35:07;26.40;99.90
9875;DHT22;4976;46.786;7.632;2022-07-10T14:37:35;26.60;99.90
9875;DHT22;4976;46.786;7.632;2022-07-10T14:40:02;26.70;99.90
9875;DHT22;4976;46.786;7.632;2022-07-10T14:42:31;26.80;99.90
9875;DHT22;4976;46.786;7.632;2022-07-10T14:44:58;26.90;99.90
9875;DHT22;4976;46.786;7.632;2022-07-10T14:47:25;26.80;99.90
9875;DHT22;4976;46.786;7.632;2022-07-10T14:49:54;26.60;99.90
9875;DHT22;4976;46.786;7.632;2022-07-10T14:52:21;26.60;99.90
9875;DHT22;4976;46.786;7.632;2022-07-10T14:54:50;26.30;99.90
9875;DHT22;4976;46.786;7.632;2022-07-10T14:57:17;26.20;99.90
9875;DHT22;4976;46.786;7.632;2022-07-10T14:59:45;25.90;99.90
9875;DHT22;4976;46.786;7.632;2022-07-10T15:02:12;25.90;99.90
9875;DHT22;4976;46.786;7.632;2022-07-10T15:04:39;26.20;99.90
9875;DHT22;4976;46.786;7.632;2022-07-10T15:07:06;26.30;99.90
9875;DHT22;4976;46.786;7.632;2022-07-10T15:09:33;26.40;99.90
9875;DHT22;4976;46.786;7.632;2022-07-10T15:12:00;26.60;99.90
9875;DHT22;4976;46.786;7.632;2022-07-10T15:14:27;26.60;99.90
9875;DHT22;4976;46.786;7.632;2022-07-10T15:16:56;26.40;99.90
9875;DHT22;4976;46.786;7.632;2022-07-10T15:19:35;26.40;99.90
9875;DHT22;4976;46.786;7.632;2022-07-10T15:22:02;26.60;99.90
9875;DHT22;4976;46.786;7.632;2022-07-10T15:24:29;26.70;99.90
9875;DHT22;4976;46.786;7.632;2022-07-10T15:26:56;26.80;99.90
9875;DHT22;4976;46.786;7.632;2022-07-10T15:29:23;26.70;99.90
9875;DHT22;4976;46.786;7.632;2022-07-10T15:31:51;26.50;99.90
9875;DHT22;4976;46.786;7.632;2022-07-10T15:34:19;26.40;99.90
9875;DHT22;4976;46.786;7.632;2022-07-10T15:36:46;26.40;99.90
9875;DHT22;4976;46.786;7.632;2022-07-10T15:39:14;26.60;99.90
9875;DHT22;4976;46.786;7.632;2022-07-10T15:41:41;26.50;99.90
9875;DHT22;4976;46.786;7.632;2022-07-10T15:44:12;26.70;99.90
9875;DHT22;4976;46.786;7.632;2022-07-10T15:46:39;26.60;99.90
9875;DHT22;4976;46.786;7.632;2022-07-10T15:49:06;26.50;99.90
9875;DHT22;4976;46.786;7.632;2022-07-10T15:51:36;26.50;99.90
9875;DHT22;4976;46.786;7.632;2022-07-10T15:54:03;26.50;99.90
9875;DHT22;4976;46.786;7.632;2022-07-10T15:56:30;26.80;99.90
9875;DHT22;4976;46.786;7.632;2022-07-10T15:58:57;26.60;99.90
9875;DHT22;4976;46.786;7.632;2022-07-10T16:01:24;26.50;99.90
9875;DHT22;4976;46.786;7.632;2022-07-10T16:03:51;26.00;99.90
9875;DHT22;4976;46.786;7.632;2022-07-10T16:06:18;25.90;99.90
9875;DHT22;4976;46.786;7.632;2022-07-10T16:08:47;25.90;99.90
9875;DHT22;4976;46.786;7.632;2022-07-10T16:11:14;25.80;99.90
9875;DHT22;4976;46.786;7.632;2022-07-10T16:13:43;25.60;99.90
9875;DHT22;4976;46.786;7.632;2022-07-10T16:16:10;25.50;99.90
9875;DHT22;4976;46.786;7.632;2022-07-10T16:18:37;25.60;99.90
9875;DHT22;4976;46.786;7.632;2022-07-10T16:21:04;25.60;99.90
9875;DHT22;4976;46.786;7.632;2022-07-10T16:23:31;25.60;99.90
9875;DHT22;4976;46.786;7.632;2022-07-10T16:25:59;25.70;99.90
9875;DHT22;4976;46.786;7.632;2022-07-10T16:28:27;25.90;99.90
9875;DHT22;4976;46.786;7.632;2022-07-10T16:30:54;26.00;99.90
9875;DHT22;4976;46.786;7.632;2022-07-10T16:33:22;25.90;99.90
9875;DHT22;4976;46.786;7.632;2022-07-10T16:35:49;25.90;99.90
9875;DHT22;4976;46.786;7.632;2022-07-10T16:38:16;26.30;99.90
9875;DHT22;4976;46.786;7.632;2022-07-10T16:40:43;26.50;99.90
9875;DHT22;4976;46.786;7.632;2022-07-10T16:43:13;26.90;99.90
9875;DHT22;4976;46.786;7.632;2022-07-10T16:45:41;29.10;99.90
9875;DHT22;4976;46.786;7.632;2022-07-10T16:48:09;30.40;99.90
9875;DHT22;4976;46.786;7.632;2022-07-10T16:50:36;29.40;99.90
9875;DHT22;4976;46.786;7.632;2022-07-10T16:53:04;30.40;99.90
9875;DHT22;4976;46.786;7.632;2022-07-10T16:55:31;33.50;99.90
9875;DHT22;4976;46.786;7.632;2022-07-10T16:57:58;35.80;99.90
9875;DHT22;4976;46.786;7.632;2022-07-10T17:00:27;37.30;99.90
9875;DHT22;4976;46.786;7.632;2022-07-10T17:02:54;38.00;99.90
9875;DHT22;4976;46.786;7.632;2022-07-10T17:05:21;38.50;99.90
9875;DHT22;4976;46.786;7.632;2022-07-10T17:07:48;39.10;99.90
9875;DHT22;4976;46.786;7.632;2022-07-10T17:10:15;39.60;99.90
9875;DHT22;4976;46.786;7.632;2022-07-10T17:12:42;38.60;99.90
9875;DHT22;4976;46.786;7.632;2022-07-10T17:15:10;38.40;99.90
9875;DHT22;4976;46.786;7.632;2022-07-10T17:17:40;38.70;99.90
9875;DHT22;4976;46.786;7.632;2022-07-10T17:20:08;37.30;99.90
9875;DHT22;4976;46.786;7.632;2022-07-10T17:22:36;36.60;99.90
9875;DHT22;4976;46.786;7.632;2022-07-10T17:25:05;35.90;99.90
9875;DHT22;4976;46.786;7.632;2022-07-10T17:27:32;35.40;99.90
9875;DHT22;4976;46.786;7.632;2022-07-10T17:29:59;34.90;99.90
9875;DHT22;4976;46.786;7.632;2022-07-10T17:32:43;34.00;99.90
9875;DHT22;4976;46.786;7.632;2022-07-10T17:35:10;32.30;99.90
9875;DHT22;4976;46.786;7.632;2022-07-10T17:37:38;31.90;99.90
9875;DHT22;4976;46.786;7.632;2022-07-10T17:40:06;32.10;99.90
9875;DHT22;4976;46.786;7.632;2022-07-10T17:42:40;32.50;99.90
9875;DHT22;4976;46.786;7.632;2022-07-10T17:45:09;31.50;99.90
9875;DHT22;4976;46.786;7.632;2022-07-10T17:47:36;30.30;99.90
9875;DHT22;4976;46.786;7.632;2022-07-10T17:50:05;30.40;99.90
9875;DHT22;4976;46.786;7.632;2022-07-10T17:52:33;30.60;99.90
9875;DHT22;4976;46.786;7.632;2022-07-10T17:55:00;28.50;99.90
9875;DHT22;4976;46.786;7.632;2022-07-10T17:57:27;26.60;99.90
9875;DHT22;4976;46.786;7.632;2022-07-10T17:59:59;26.00;99.90
9875;DHT22;4976;46.786;7.632;2022-07-10T18:02:26;26.30;99.90
9875;DHT22;4976;46.786;7.632;2022-07-10T18:04:53;27.90;99.90
9875;DHT22;4976;46.786;7.632;2022-07-10T18:07:21;28.40;99.90
9875;DHT22;4976;46.786;7.632;2022-07-10T18:09:48;27.20;99.90
9875;DHT22;4976;46.786;7.632;2022-07-10T18:12:15;25.70;99.90
9875;DHT22;4976;46.786;7.632;2022-07-10T18:14:42;24.60;99.90
9875;DHT22;4976;46.786;7.632;2022-07-10T18:17:09;24.00;99.90
9875;DHT22;4976;46.786;7.632;2022-07-10T18:19:36;23.70;99.90
9875;DHT22;4976;46.786;7.632;2022-07-10T18:22:03;23.40;99.90
9875;DHT22;4976;46.786;7.632;2022-07-10T18:24:32;23.40;99.90
9875;DHT22;4976;46.786;7.632;2022-07-10T18:26:59;23.30;99.90
9875;DHT22;4976;46.786;7.632;2022-07-10T18:29:27;23.20;99.90
9875;DHT22;4976;46.786;7.632;2022-07-10T18:31:56;23.10;99.90
9875;DHT22;4976;46.786;7.632;2022-07-10T18:34:23;22.90;99.90
9875;DHT22;4976;46.786;7.632;2022-07-10T18:36:57;22.80;99.90
9875;DHT22;4976;46.786;7.632;2022-07-10T18:39:25;22.70;99.90
9875;DHT22;4976;46.786;7.632;2022-07-10T18:41:53;22.70;99.90
9875;DHT22;4976;46.786;7.632;2022-07-10T18:44:20;22.50;99.90
9875;DHT22;4976;46.786;7.632;2022-07-10T18:46:47;22.40;99.90
9875;DHT22;4976;46.786;7.632;2022-07-10T18:49:14;22.30;99.90
9875;DHT22;4976;46.786;7.632;2022-07-10T18:51:41;22.30;99.90
9875;DHT22;4976;46.786;7.632;2022-07-10T18:54:09;22.30;99.90
9875;DHT22;4976;46.786;7.632;2022-07-10T18:56:36;22.20;99.90
9875;DHT22;4976;46.786;7.632;2022-07-10T18:59:04;22.10;99.90
9875;DHT22;4976;46.786;7.632;2022-07-10T19:01:31;22.00;99.90
9875;DHT22;4976;46.786;7.632;2022-07-10T19:03:59;21.90;99.90
9875;DHT22;4976;46.786;7.632;2022-07-10T19:06:26;21.80;99.90
9875;DHT22;4976;46.786;7.632;2022-07-10T19:08:53;21.70;99.90
9875;DHT22;4976;46.786;7.632;2022-07-10T19:11:21;21.60;99.90
9875;DHT22;4976;46.786;7.632;2022-07-10T19:13:48;21.50;99.90
9875;DHT22;4976;46.786;7.632;2022-07-10T19:16:19;21.30;99.90
9875;DHT22;4976;46.786;7.632;2022-07-10T19:18:47;21.20;99.90
9875;DHT22;4976;46.786;7.632;2022-07-10T19:21:14;21.20;99.90
9875;DHT22;4976;46.786;7.632;2022-07-10T19:23:41;21.00;99.90
9875;DHT22;4976;46.786;7.632;2022-07-10T19:26:08;20.90;99.90
9875;DHT22;4976;46.786;7.632;2022-07-10T19:28:36;20.80;99.90
9875;DHT22;4976;46.786;7.632;2022-07-10T19:31:03;20.70;99.90
9875;DHT22;4976;46.786;7.632;2022-07-10T19:33:31;20.60;99.90
9875;DHT22;4976;46.786;7.632;2022-07-10T19:36:00;20.50;99.90
9875;DHT22;4976;46.786;7.632;2022-07-10T19:38:27;20.50;99.90
9875;DHT22;4976;46.786;7.632;2022-07-10T19:40:54;20.40;99.90
9875;DHT22;4976;46.786;7.632;2022-07-10T19:43:21;20.30;99.90
9875;DHT22;4976;46.786;7.632;2022-07-10T19:45:48;20.10;99.90
9875;DHT22;4976;46.786;7.632;2022-07-10T19:48:15;20.00;99.90
9875;DHT22;4976;46.786;7.632;2022-07-10T19:50:43;19.90;99.90
9875;DHT22;4976;46.786;7.632;2022-07-10T19:53:10;19.80;99.90
9875;DHT22;4976;46.786;7.632;2022-07-10T19:55:37;19.60;99.90
9875;DHT22;4976;46.786;7.632;2022-07-10T19:58:04;19.50;99.90
9875;DHT22;4976;46.786;7.632;2022-07-10T20:00:31;19.50;99.90
9875;DHT22;4976;46.786;7.632;2022-07-10T20:02:58;19.50;99.90
9875;DHT22;4976;46.786;7.632;2022-07-10T20:05:27;19.50;99.90
9875;DHT22;4976;46.786;7.632;2022-07-10T20:07:55;19.40;99.90
9875;DHT22;4976;46.786;7.632;2022-07-10T20:10:22;19.40;99.90
9875;DHT22;4976;46.786;7.632;2022-07-10T20:12:49;19.20;99.90
9875;DHT22;4976;46.786;7.632;2022-07-10T20:15:16;19.20;99.90
9875;DHT22;4976;46.786;7.632;2022-07-10T20:17:43;19.10;99.90